Time;durP1;ratioP1;P1;durP2;ratioP2;P2;SDS_P1;SDS_P2;PMS_P1;PMS_P2;Temp;Humidity;BMP_temperature;BMP_pressure;BME280_temperature;BME280_humidity;BME280_pressure;Samples;Min_cycle;Max_cycle;Signal;HPM_P1;HPM_P2
2022/10/02 00:00:11;;;;;;;3.63;0.80;;;19.60;1.00;;;;;;5014523;28;20042;-56
2022/10/02 00:02:45;;;;;;;7.63;1.65;;;19.70;1.00;;;;;;5014198;28;20050;-58
2022/10/02 00:05:33;;;;;;;5.63;1.33;;;19.60;1.00;;;;;;5014538;28;20155;-58
2022/10/02 00:08:06;;;;;;;6.53;1.40;;;19.60;1.00;;;;;;5014558;28;20037;-58
2022/10/02 00:10:47;;;;;;;4.10;0.88;;;19.60;1.00;;;;;;5014290;28;20038;-56
2022/10/02 00:13:25;;;;;;;2.75;1.10;;;19.60;1.00;;;;;;5013955;28;20037;-58
2022/10/02 00:15:53;;;;;;;6.97;1.38;;;19.70;1.00;;;;;;5014245;28;20476;-55
2022/10/02 00:18:28;;;;;;;4.13;1.30;;;19.60;1.00;;;;;;5014314;28;20041;-57
2022/10/02 00:21:23;;;;;;;2.72;1.00;;;19.70;1.00;;;;;;5014289;28;20049;-56
2022/10/02 00:23:57;;;;;;;4.75;0.95;;;19.60;1.00;;;;;;5030126;28;20041;-55
2022/10/02 00:26:40;;;;;;;4.32;1.00;;;19.70;1.00;;;;;;5034000;28;20041;-54
2022/10/02 00:29:20;;;;;;;3.45;1.17;;;19.60;1.00;;;;;;5032610;28;20041;-55
2022/10/02 00:31:57;;;;;;;2.90;0.77;;;19.60;1.00;;;;;;5033102;28;20052;-52
2022/10/02 00:34:57;;;;;;;4.57;1.02;;;19.70;1.00;;;;;;5034059;28;20053;-57
2022/10/02 00:37:29;;;;;;;5.03;1.30;;;19.70;1.00;;;;;;5017346;28;20064;-54
2022/10/02 00:40:23;;;;;;;4.65;1.10;;;19.70;1.00;;;;;;5033558;28;20046;-55
2022/10/02 00:43:00;;;;;;;4.28;0.93;;;19.60;1.00;;;;;;5033401;28;20535;-57
2022/10/02 00:45:33;;;;;;;7.45;1.17;;;19.60;1.00;;;;;;5033702;28;20037;-54
2022/10/02 00:48:33;;;;;;;4.30;1.00;;;19.60;1.00;;;;;;5033623;28;20049;-54
2022/10/02 00:51:03;;;;;;;4.20;1.00;;;19.60;1.00;;;;;;5033125;28;20045;-55
2022/10/02 00:53:39;;;;;;;5.00;1.08;;;19.70;1.00;;;;;;5031716;28;20406;-56
2022/10/02 00:56:14;;;;;;;2.75;0.85;;;19.60;1.00;;;;;;5033400;28;20044;-57
2022/10/02 00:59:19;;;;;;;7.93;0.95;;;19.60;1.00;;;;;;5033677;28;20048;-56
2022/10/02 01:01:58;;;;;;;7.70;1.25;;;19.60;1.00;;;;;;5033057;28;20224;-53
2022/10/02 01:04:32;;;;;;;6.38;1.10;;;19.60;1.00;;;;;;5033275;28;20460;-57
2022/10/02 01:07:00;;;;;;;6.90;1.27;;;19.60;1.00;;;;;;5034591;28;20045;-52
2022/10/02 01:09:27;;;;;;;4.25;0.80;;;19.60;1.00;;;;;;5037158;28;20053;-52
2022/10/02 01:11:54;;;;;;;5.55;1.60;;;19.60;1.00;;;;;;5036720;28;20049;-55
2022/10/02 01:14:34;;;;;;;5.88;2.13;;;19.60;1.00;;;;;;5037236;28;20068;-52
2022/10/02 01:17:03;;;;;;;3.90;0.93;;;19.60;1.00;;;;;;5037284;28;20033;-56
2022/10/02 01:19:39;;;;;;;6.47;1.13;;;19.50;1.00;;;;;;5037075;28;20115;-54
2022/10/02 01:22:40;;;;;;;3.05;0.90;;;19.50;1.00;;;;;;5036731;28;20071;-54
2022/10/02 01:25:07;;;;;;;2.55;0.98;;;19.50;1.00;;;;;;5021473;28;20056;-56
2022/10/02 01:27:35;;;;;;;4.60;0.90;;;19.40;1.00;;;;;;5037403;28;20099;-55
2022/10/02 01:30:11;;;;;;;3.83;0.80;;;19.40;1.00;;;;;;5037522;28;20128;-54
2022/10/02 01:32:42;;;;;;;5.30;0.90;;;19.30;1.00;;;;;;5036878;28;20041;-53
2022/10/02 01:35:09;;;;;;;4.57;0.85;;;19.30;1.00;;;;;;5036753;28;20038;-50
2022/10/02 01:37:39;;;;;;;6.18;1.02;;;19.40;1.00;;;;;;5036815;28;20054;-54
2022/10/02 01:40:09;;;;;;;2.92;1.27;;;19.40;1.00;;;;;;5036825;28;20048;-54
2022/10/02 01:42:38;;;;;;;6.30;0.93;;;19.40;1.00;;;;;;5036342;28;20049;-53
2022/10/02 01:45:07;;;;;;;2.65;0.73;;;19.40;1.00;;;;;;5036884;28;20038;-53
2022/10/02 01:47:51;;;;;;;4.85;1.10;;;19.50;1.00;;;;;;5036684;28;20460;-56
2022/10/02 01:50:53;;;;;;;;;;;19.50;1.00;;;;;;5037018;28;20465;-56
2022/10/02 01:53:31;;;;;;;2.33;0.82;;;19.50;1.00;;;;;;4994662;28;19938;-54
2022/10/02 01:56:24;;;;;;;6.63;1.13;;;19.50;1.00;;;;;;5031724;28;20053;-52
2022/10/02 01:59:12;;;;;;;5.13;1.27;;;19.50;1.00;;;;;;5029780;28;20058;-53
2022/10/02 02:02:04;;;;;;;3.55;0.60;;;19.50;1.00;;;;;;5035996;28;20384;-53
2022/10/02 02:04:46;;;;;;;4.25;0.57;;;19.50;1.00;;;;;;5035266;28;20124;-56
2022/10/02 02:07:29;;;;;;;3.67;1.00;;;19.50;1.00;;;;;;5036460;28;20050;-53
2022/10/02 02:10:15;;;;;;;4.53;1.10;;;19.50;1.00;;;;;;5036903;28;20041;-52
2022/10/02 02:12:48;;;;;;;2.35;0.95;;;19.50;1.00;;;;;;5036221;28;20056;-56
2022/10/02 02:15:35;;;;;;;4.82;0.80;;;19.50;1.00;;;;;;5036407;28;20499;-51
2022/10/02 02:18:24;;;;;;;2.88;0.60;;;19.50;1.00;;;;;;5035281;28;20046;-54
2022/10/02 02:20:56;;;;;;;6.75;1.13;;;19.50;1.00;;;;;;5036380;28;20077;-50
2022/10/02 02:23:28;;;;;;;5.55;1.63;;;19.40;1.00;;;;;;5035992;28;20046;-57
2022/10/02 02:26:01;;;;;;;5.70;1.33;;;19.40;1.00;;;;;;5036081;28;20048;-55
2022/10/02 02:28:30;;;;;;;5.65;1.10;;;19.40;1.00;;;;;;5035775;28;20047;-46
2022/10/02 02:30:59;;;;;;;4.70;1.02;;;19.30;1.00;;;;;;5035971;28;20095;-56
2022/10/02 02:33:37;;;;;;;6.72;1.17;;;19.40;1.00;;;;;;5035478;28;20045;-51
2022/10/02 02:36:12;;;;;;;4.80;1.60;;;19.40;1.00;;;;;;5036183;28;20041;-54
2022/10/02 02:38:44;;;;;;;3.95;0.75;;;19.50;1.00;;;;;;5036289;28;20037;-55
2022/10/02 02:41:27;;;;;;;3.13;0.85;;;19.40;1.00;;;;;;5035586;28;20046;-49
2022/10/02 02:44:01;;;;;;;6.10;1.30;;;19.50;1.00;;;;;;5035334;28;20402;-51
2022/10/02 02:47:05;;;;;;;4.32;0.98;;;19.50;1.00;;;;;;5035965;28;20049;-54
2022/10/02 02:50:00;;;;;;;3.63;0.50;;;19.50;1.00;;;;;;5035710;28;20048;-55
2022/10/02 02:52:32;;;;;;;3.92;0.93;;;19.50;1.00;;;;;;5029897;28;20049;-48
2022/10/02 02:55:12;;;;;;;4.38;1.40;;;19.40;1.00;;;;;;5035355;28;20380;-49
2022/10/02 02:58:01;;;;;;;3.05;0.95;;;19.40;1.00;;;;;;5035502;28;20038;-50
2022/10/02 03:00:28;;;;;;;6.03;1.48;;;19.40;1.00;;;;;;5035413;28;20041;-47
2022/10/02 03:02:55;;;;;;;7.43;0.93;;;19.40;1.00;;;;;;5035055;28;20416;-52
2022/10/02 03:05:23;;;;;;;4.88;1.45;;;19.30;1.00;;;;;;5035388;28;20103;-51
2022/10/02 03:07:55;;;;;;;3.33;0.90;;;19.30;1.00;;;;;;5034900;28;20056;-51
2022/10/02 03:10:51;;;;;;;5.20;1.45;;;19.30;1.00;;;;;;5035096;28;20041;-50
2022/10/02 03:13:53;;;;;;;4.43;1.73;;;19.30;1.00;;;;;;5034722;28;20046;-50
2022/10/02 03:16:38;;;;;;;2.85;0.73;;;19.20;1.00;;;;;;5034812;28;20052;-47
2022/10/02 03:19:27;;;;;;;5.70;1.67;;;19.20;1.00;;;;;;5035109;28;20059;-52
2022/10/02 03:22:19;;;;;;;6.53;0.82;;;19.20;1.00;;;;;;5034791;28;20377;-51
2022/10/02 03:24:56;;;;;;;5.05;0.93;;;19.20;1.00;;;;;;5034781;28;20048;-49
2022/10/02 03:27:30;;;;;;;5.68;1.95;;;19.20;1.00;;;;;;5035377;28;20468;-50
2022/10/02 03:30:07;;;;;;;3.70;1.20;;;19.10;1.00;;;;;;5034893;28;20112;-46
2022/10/02 03:32:36;;;;;;;4.35;0.90;;;19.20;1.00;;;;;;5034381;28;20043;-47
2022/10/02 03:35:07;;;;;;;2.88;1.10;;;19.20;1.00;;;;;;5035097;28;20042;-46
2022/10/02 03:37:34;;;;;;;6.10;0.90;;;19.20;1.00;;;;;;5034860;28;20037;-53
2022/10/02 03:40:03;;;;;;;4.80;1.40;;;19.20;1.00;;;;;;5034434;28;20150;-51
2022/10/02 03:42:32;;;;;;;4.50;1.13;;;19.30;1.00;;;;;;5034388;28;20052;-50
2022/10/02 03:44:59;;;;;;;5.32;1.08;;;19.20;1.00;;;;;;5034620;28;20117;-50
2022/10/02 03:47:26;;;;;;;6.38;1.10;;;19.30;1.00;;;;;;5034802;28;20179;-47
2022/10/02 03:49:52;;;;;;;8.20;1.27;;;19.30;1.00;;;;;;5034365;28;20045;-53
2022/10/02 03:52:22;;;;;;;4.32;0.77;;;19.20;1.00;;;;;;5034002;28;20072;-46
2022/10/02 03:54:55;;;;;;;4.22;1.05;;;19.20;1.00;;;;;;5034223;28;20438;-49
2022/10/02 03:57:24;;;;;;;4.10;0.82;;;19.20;1.00;;;;;;5034563;28;20038;-51
2022/10/02 04:00:11;;;;;;;5.13;1.30;;;19.20;1.00;;;;;;5034598;28;20048;-51
2022/10/02 04:03:02;;;;;;;3.83;1.13;;;19.20;1.00;;;;;;5033658;28;20049;-52
2022/10/02 04:05:54;;;;;;;4.82;1.23;;;19.20;1.00;;;;;;5034465;28;20052;-50
2022/10/02 04:08:45;;;;;;;7.20;1.27;;;19.20;1.00;;;;;;5034326;28;20046;-53
2022/10/02 04:11:29;;;;;;;9.75;0.90;;;19.20;1.00;;;;;;5034215;28;20045;-46
2022/10/02 04:14:05;;;;;;;5.15;1.20;;;19.30;1.00;;;;;;5033729;28;20037;-50
2022/10/02 04:16:42;;;;;;;3.38;0.82;;;19.20;1.00;;;;;;5033839;28;20041;-53
2022/10/02 04:19:42;;;;;;;4.40;0.95;;;19.20;1.00;;;;;;5034343;28;20041;-48
2022/10/02 04:22:23;;;;;;;3.78;1.13;;;19.20;1.00;;;;;;4998110;28;20054;-53
2022/10/02 04:24:57;;;;;;;5.47;1.17;;;19.20;1.00;;;;;;5033513;28;20048;-50
2022/10/02 04:27:34;;;;;;;3.78;0.80;;;19.20;1.00;;;;;;5034129;28;20049;-53
2022/10/02 04:30:05;;;;;;;5.40;1.30;;;19.30;1.00;;;;;;5033617;28;20041;-51
2022/10/02 04:32:35;;;;;;;6.95;1.33;;;19.30;1.00;;;;;;5033417;28;20053;-52
2022/10/02 04:35:48;;;;;;;5.57;0.98;;;19.20;1.00;;;;;;5033482;28;20455;-48
2022/10/02 04:38:30;;;;;;;4.93;1.60;;;19.30;1.00;;;;;;5033683;28;20037;-51
2022/10/02 04:41:27;;;;;;;7.20;1.08;;;19.30;1.00;;;;;;5033447;28;20042;-47
2022/10/02 04:44:03;;;;;;;3.72;1.02;;;19.30;1.00;;;;;;5033073;28;20038;-49
2022/10/02 04:46:39;;;;;;;3.35;1.30;;;19.30;1.00;;;;;;5033300;28;20064;-46
2022/10/02 04:49:33;;;;;;;5.43;1.48;;;19.40;1.00;;;;;;5033468;28;20049;-54
2022/10/02 04:52:24;;;;;;;4.38;1.13;;;19.40;1.00;;;;;;5032973;28;20044;-52
2022/10/02 04:55:25;;;;;;;5.47;1.05;;;19.30;1.00;;;;;;5033399;28;20038;-53
2022/10/02 04:58:15;;;;;;;7.03;0.90;;;19.30;1.00;;;;;;5033228;28;20388;-51
2022/10/02 05:01:04;;;;;;;4.22;0.70;;;19.30;1.00;;;;;;5033220;28;20041;-52
2022/10/02 05:03:31;;;;;;;5.65;0.82;;;19.30;1.00;;;;;;5032901;28;20045;-51
2022/10/02 05:06:29;;;;;;;3.53;0.70;;;19.20;1.00;;;;;;5033135;28;20046;-48
2022/10/02 05:09:06;;;;;;;5.07;0.88;;;19.10;1.00;;;;;;5033173;28;20049;-53
2022/10/02 05:12:17;;;;;;;3.83;1.10;;;19.10;1.00;;;;;;5033295;28;20048;-52
2022/10/02 05:15:22;;;;;;;5.15;1.10;;;19.00;1.00;;;;;;5024591;28;20041;-49
2022/10/02 05:18:24;;;;;;;4.90;1.52;;;19.00;1.00;;;;;;5032017;28;20060;-46
2022/10/02 05:21:16;;;;;;;4.80;0.80;;;19.00;1.00;;;;;;5020509;28;20053;-49
2022/10/02 05:24:12;;;;;;;3.63;0.80;;;19.00;1.00;;;;;;5033360;28;20087;-53
2022/10/02 05:26:39;;;;;;;3.25;1.25;;;19.00;1.00;;;;;;5017587;28;20415;-52
2022/10/02 05:29:21;;;;;;;4.63;1.02;;;19.10;1.00;;;;;;5033188;28;20480;-55
2022/10/02 05:32:30;;;;;;;5.63;1.55;;;19.00;1.00;;;;;;5032654;28;20047;-57
2022/10/02 05:35:36;;;;;;;7.03;1.15;;;19.00;1.00;;;;;;5032923;28;20038;-57
2022/10/02 05:38:24;;;;;;;3.95;0.88;;;19.00;1.00;;;;;;5032617;28;20096;-56
2022/10/02 05:41:19;;;;;;;5.57;1.10;;;19.00;1.00;;;;;;5032999;28;20042;-55
2022/10/02 05:44:05;;;;;;;3.83;0.90;;;19.10;1.00;;;;;;5031527;28;20048;-54
2022/10/02 05:46:42;;;;;;;8.10;0.90;;;19.10;1.00;;;;;;5033691;28;20034;-54
2022/10/02 05:49:28;;;;;;;2.47;0.80;;;19.10;1.00;;;;;;5032735;28;20041;-56
2022/10/02 05:52:04;;;;;;;5.28;1.20;;;19.10;1.00;;;;;;5032665;28;20044;-52
2022/10/02 05:54:46;;;;;;;5.65;1.15;;;19.10;1.00;;;;;;5034986;28;20064;-55
2022/10/02 05:57:19;;;;;;;4.45;0.75;;;19.10;1.00;;;;;;5034633;28;20056;-57
2022/10/02 06:00:23;;;;;;;5.63;0.93;;;19.10;1.00;;;;;;5029543;28;20048;-54
2022/10/02 06:03:08;;;;;;;;;;;19.10;1.00;;;;;;5036495;28;20053;-56
2022/10/02 06:06:16;;;;;;;3.60;0.80;;;19.10;1.00;;;;;;5036019;28;19921;-56
2022/10/02 06:08:57;;;;;;;5.53;1.02;;;19.10;1.00;;;;;;5036591;28;20056;-55
2022/10/02 06:11:34;;;;;;;4.93;0.80;;;19.10;1.00;;;;;;5035943;28;20072;-54
2022/10/02 06:14:30;;;;;;;3.38;1.73;;;19.10;1.00;;;;;;5035949;28;20561;-55
2022/10/02 06:17:27;;;;;;;6.82;1.38;;;19.00;1.00;;;;;;5036297;28;20103;-52
2022/10/02 06:20:11;;;;;;;2.65;1.08;;;19.00;1.00;;;;;;5036094;28;20454;-52
2022/10/02 06:22:43;;;;;;;;;;;19.10;1.00;;;;;;5029365;28;20064;-53
2022/10/02 06:25:17;;;;;;;4.55;0.85;;;19.00;1.00;;;;;;5023809;28;19921;-51
2022/10/02 06:28:18;;;;;;;6.70;1.40;;;19.00;1.00;;;;;;5025451;28;20137;-50
2022/10/02 06:30:54;;;;;;;7.47;2.28;;;19.10;1.00;;;;;;5033775;28;20107;-50
2022/10/02 06:33:23;;;;;;;6.25;1.38;;;19.10;1.00;;;;;;5035718;28;20125;-51
2022/10/02 06:36:28;;;;;;;7.22;2.03;;;19.10;1.00;;;;;;5035594;28;20044;-56
2022/10/02 06:39:08;;;;;;;12.48;1.80;;;19.10;1.00;;;;;;5020847;28;20049;-56
2022/10/02 06:42:19;;;;;;;5.95;1.23;;;19.00;1.00;;;;;;5024066;28;20038;-57
2022/10/02 06:45:05;;;;;;;10.63;2.17;;;19.00;1.00;;;;;;5019288;28;20054;-55
2022/10/02 06:47:35;;;;;;;16.15;2.80;;;18.90;1.00;;;;;;5035667;28;20041;-50
2022/10/02 06:50:18;;;;;;;6.57;1.33;;;18.90;1.00;;;;;;5035297;28;20096;-54
2022/10/02 06:53:11;;;;;;;12.73;1.80;;;18.80;1.00;;;;;;5033702;28;20037;-56
2022/10/02 06:56:07;;;;;;;13.32;2.15;;;18.80;1.00;;;;;;5024705;28;20058;-53
2022/10/02 06:58:37;;;;;;;8.43;1.95;;;18.90;1.00;;;;;;5034803;28;20041;-50
2022/10/02 07:01:34;;;;;;;8.27;1.60;;;18.90;1.00;;;;;;5034774;28;20048;-50
2022/10/02 07:04:28;;;;;;;11.65;2.40;;;18.90;1.00;;;;;;5034626;28;20053;-49
2022/10/02 07:06:57;;;;;;;11.88;1.40;;;18.90;1.00;;;;;;5032012;28;20049;-52
2022/10/02 07:09:46;;;;;;;8.38;2.90;;;18.90;1.00;;;;;;5034481;28;20037;-52
2022/10/02 07:12:42;;;;;;;15.10;2.35;;;18.90;1.00;;;;;;5034342;28;20048;-53
2022/10/02 07:15:45;;;;;;;8.25;1.73;;;18.90;1.00;;;;;;5029753;28;20049;-53
2022/10/02 07:18:41;;;;;;;10.75;1.98;;;19.00;1.00;;;;;;5012535;28;20049;-52
2022/10/02 07:21:22;;;;;;;8.10;1.70;;;18.90;1.00;;;;;;5032812;28;20037;-54
2022/10/02 07:24:14;;;;;;;6.72;2.03;;;18.90;1.00;;;;;;5034415;28;20041;-46
2022/10/02 07:27:02;;;;;;;7.53;1.58;;;18.80;1.00;;;;;;5034750;28;20048;-51
2022/10/02 07:29:49;;;;;;;6.70;1.48;;;18.90;1.00;;;;;;5034200;28;20453;-54
2022/10/02 07:32:37;;;;;;;9.30;1.75;;;18.80;1.00;;;;;;5033804;28;20045;-52
2022/10/02 07:35:18;;;;;;;9.27;1.80;;;18.80;1.00;;;;;;5033044;28;20064;-51
2022/10/02 07:37:56;;;;;;;11.52;1.70;;;18.80;1.00;;;;;;5032102;28;20037;-50
2022/10/02 07:40:45;;;;;;;7.95;2.22;;;18.80;1.00;;;;;;5032510;28;20037;-55
2022/10/02 07:43:50;;;;;;;11.02;2.13;;;18.80;1.00;;;;;;5033605;28;20395;-49
2022/10/02 07:46:38;;;;;;;16.42;2.67;;;18.90;1.00;;;;;;5029613;28;20575;-53
2022/10/02 07:49:29;;;;;;;11.30;1.70;;;18.80;1.00;;;;;;5020114;28;20052;-51
2022/10/02 07:52:09;;;;;;;10.02;2.45;;;18.90;1.00;;;;;;5029855;28;20068;-49
2022/10/02 07:54:55;;;;;;;5.25;1.35;;;18.80;1.00;;;;;;5032446;28;20042;-53
2022/10/02 07:57:54;;;;;;;13.82;2.25;;;18.80;1.00;;;;;;5057509;28;20045;-52
2022/10/02 08:00:24;;;;;;;11.88;1.88;;;18.80;1.00;;;;;;5024381;28;20042;-53
2022/10/02 08:02:58;;;;;;;10.88;3.00;;;18.80;1.00;;;;;;5033518;28;20499;-48
2022/10/02 08:05:35;;;;;;;12.38;1.80;;;18.70;1.00;;;;;;5033703;28;20384;-53
2022/10/02 08:08:38;;;;;;;10.50;1.65;;;18.80;1.00;;;;;;5033707;28;20484;-54
2022/10/02 08:11:31;;;;;;;8.30;1.50;;;18.80;1.00;;;;;;5032039;28;20148;-48
2022/10/02 08:14:01;;;;;;;;;;;18.80;1.00;;;;;;5033783;28;20039;-51
2022/10/02 08:16:49;;;;;;;10.15;1.52;;;18.90;1.00;;;;;;5032608;28;19987;-53
2022/10/02 08:19:21;;;;;;;6.88;1.65;;;19.10;1.00;;;;;;5033440;28;20041;-52
2022/10/02 08:21:56;;;;;;;12.77;2.00;;;19.20;1.00;;;;;;5033419;28;20052;-52
2022/10/02 08:24:30;;;;;;;6.50;1.10;;;19.40;1.00;;;;;;5033531;28;20046;-52
2022/10/02 08:27:21;;;;;;;7.95;1.58;;;19.40;1.00;;;;;;5033904;28;20092;-51
2022/10/02 08:29:53;;;;;;;11.98;1.65;;;19.50;1.00;;;;;;5033480;28;20503;-53
2022/10/02 08:32:21;;;;;;;7.43;1.58;;;19.60;1.00;;;;;;5033356;28;20483;-51
2022/10/02 08:34:48;;;;;;;9.85;1.45;;;19.70;1.00;;;;;;5033392;28;20485;-52
2022/10/02 08:37:33;;;;;;;5.65;0.95;;;19.60;1.00;;;;;;5033465;28;20068;-55
2022/10/02 08:40:38;;;;;;;3.97;1.55;;;19.60;1.00;;;;;;5025433;28;20108;-56
2022/10/02 08:43:33;;;;;;;9.52;1.23;;;19.50;1.00;;;;;;5021528;28;20036;-54
2022/10/02 08:46:32;;;;;;;8.20;2.65;;;19.40;1.00;;;;;;5013425;28;20508;-54
2022/10/02 08:49:16;;;;;;;11.32;2.03;;;19.30;1.00;;;;;;5013850;28;20045;-54
2022/10/02 08:52:05;;;;;;;10.60;2.40;;;19.20;1.00;;;;;;5013233;28;20046;-50
2022/10/02 08:54:45;;;;;;;12.15;3.33;;;19.20;1.00;;;;;;5012330;28;20045;-53
2022/10/02 08:57:46;;;;;;;6.75;1.60;;;19.20;1.00;;;;;;5013768;28;20038;-53
2022/10/02 09:00:26;;;;;;;5.13;1.25;;;19.30;1.00;;;;;;5013536;28;20514;-51
2022/10/02 09:03:17;;;;;;;16.42;2.45;;;19.30;1.00;;;;;;5013228;28;20069;-53
2022/10/02 09:06:17;;;;;;;10.50;1.70;;;19.20;1.00;;;;;;5013429;28;20048;-54
2022/10/02 09:09:03;;;;;;;10.00;1.63;;;19.20;1.00;;;;;;5015532;28;20058;-50
2022/10/02 09:11:59;;;;;;;11.35;1.98;;;19.20;1.00;;;;;;5031855;28;20045;-55
2022/10/02 09:14:41;;;;;;;9.75;1.63;;;19.20;1.00;;;;;;5032999;28;20058;-51
2022/10/02 09:17:32;;;;;;;14.90;2.43;;;19.20;1.00;;;;;;5032675;28;20124;-52
2022/10/02 09:20:12;;;;;;;8.57;2.25;;;19.20;1.00;;;;;;5032962;28;20121;-51
2022/10/02 09:23:03;;;;;;;12.13;2.30;;;19.30;1.00;;;;;;5032755;28;20049;-52
2022/10/02 09:25:43;;;;;;;7.15;1.30;;;19.40;1.00;;;;;;5032380;28;20054;-49
2022/10/02 09:28:24;;;;;;;9.00;2.35;;;19.40;1.00;;;;;;5034051;28;20049;-53
2022/10/02 09:31:22;;;;;;;8.55;1.77;;;19.40;1.00;;;;;;5035559;28;20049;-49
2022/10/02 09:34:18;;;;;;;13.57;2.15;;;19.50;1.00;;;;;;5037038;28;20434;-51
2022/10/02 09:36:50;;;;;;;9.90;1.67;;;19.50;1.00;;;;;;5036737;28;20071;-49
2022/10/02 09:39:44;;;;;;;5.23;1.67;;;19.50;1.00;;;;;;5036893;28;20052;-48
2022/10/02 09:42:32;;;;;;;7.85;1.77;;;19.50;1.00;;;;;;5020734;28;20096;-52
2022/10/02 09:45:16;;;;;;;9.63;1.65;;;19.40;1.00;;;;;;5016770;28;20038;-54
2022/10/02 09:48:20;;;;;;;8.07;1.30;;;19.40;1.00;;;;;;5016944;28;20041;-49
2022/10/02 09:51:27;;;;;;;8.05;2.55;;;19.30;1.00;;;;;;5018096;28;20103;-49
2022/10/02 09:54:51;;;;;;;6.57;1.52;;;19.30;1.00;;;;;;5026737;28;20491;-51
2022/10/02 09:57:39;;;;;;;11.07;1.90;;;19.30;1.00;;;;;;5008803;28;20412;-53
2022/10/02 10:00:17;;;;;;;6.68;1.27;;;19.30;1.00;;;;;;5014136;28;20042;-55
2022/10/02 10:03:13;;;;;;;4.97;1.48;;;19.30;1.00;;;;;;5023965;28;20041;-48
2022/10/02 10:06:05;;;;;;;5.78;1.50;;;19.30;1.00;;;;;;5035041;28;20052;-51
2022/10/02 10:09:00;;;;;;;7.78;1.90;;;19.30;1.00;;;;;;5036749;28;20446;-49
2022/10/02 10:11:40;;;;;;;8.05;2.40;;;19.30;1.00;;;;;;5036131;28;20116;-48
2022/10/02 10:14:46;;;;;;;5.53;1.00;;;19.40;1.00;;;;;;5036117;28;20046;-48
2022/10/02 10:17:23;;;;;;;6.60;2.92;;;19.40;1.00;;;;;;5032048;28;20066;-53
2022/10/02 10:19:59;;;;;;;12.45;2.45;;;19.40;1.00;;;;;;5034537;28;20099;-54
2022/10/02 10:23:11;;;;;;;8.65;2.05;;;19.30;1.00;;;;;;5035825;28;20034;-51
2022/10/02 10:25:41;;;;;;;5.70;1.30;;;19.40;1.00;;;;;;5008186;28;20037;-50
2022/10/02 10:28:21;;;;;;;8.85;2.13;;;19.40;1.00;;;;;;5027463;28;20057;-56
2022/10/02 10:31:03;;;;;;;5.55;1.45;;;19.40;1.00;;;;;;5031461;28;20045;-53
2022/10/02 10:33:59;;;;;;;6.30;1.52;;;19.30;1.00;;;;;;5053768;28;20044;-53
2022/10/02 10:40:05;;;;;;;8.10;2.05;;;19.30;1.00;;;;;;5032896;28;20584;-57
2022/10/02 10:42:54;;;;;;;9.05;1.67;;;19.30;1.00;;;;;;5033823;28;20075;-50
2022/10/02 10:45:59;;;;;;;6.50;1.65;;;19.30;1.00;;;;;;5035460;28;20038;-53
2022/10/02 10:48:33;;;;;;;11.05;2.15;;;19.40;1.00;;;;;;5034767;28;20117;-51
2022/10/02 10:51:37;;;;;;;3.63;0.90;;;19.40;1.00;;;;;;5035371;28;20042;-52
2022/10/02 10:54:23;;;;;;;11.60;2.25;;;19.40;1.00;;;;;;5029889;28;20109;-56
2022/10/02 10:57:00;;;;;;;9.18;1.50;;;19.40;1.00;;;;;;5035208;28;20476;-52
2022/10/02 10:59:51;;;;;;;8.60;1.92;;;19.40;1.00;;;;;;5034299;28;20052;-54
2022/10/02 11:02:37;;;;;;;16.13;2.65;;;19.40;1.00;;;;;;5017862;28;20049;-54
2022/10/02 11:05:04;;;;;;;9.48;1.80;;;19.40;1.00;;;;;;5015147;28;20042;-52
2022/10/02 11:07:46;;;;;;;9.70;1.50;;;19.50;1.00;;;;;;5014856;28;20080;-51
2022/10/02 11:10:34;;;;;;;6.65;1.50;;;19.60;1.00;;;;;;5015326;28;20050;-52
2022/10/02 11:13:10;;;;;;;9.95;1.30;;;19.70;1.00;;;;;;5015322;28;20045;-50
2022/10/02 11:15:55;;;;;;;8.43;0.93;;;19.70;1.00;;;;;;5015200;28;20508;-51
2022/10/02 11:18:46;;;;;;;7.35;1.65;;;19.80;1.00;;;;;;5015623;28;20037;-48
2022/10/02 11:21:40;;;;;;;9.40;1.13;;;19.70;1.00;;;;;;5015442;28;20042;-50
2022/10/02 11:24:25;;;;;;;6.68;1.73;;;19.70;1.00;;;;;;5015191;28;20137;-50
2022/10/02 11:27:12;;;;;;;5.20;1.20;;;19.70;1.00;;;;;;5015101;28;20048;-55
2022/10/02 11:30:01;;;;;;;8.15;0.93;;;19.70;1.00;;;;;;5015032;28;20050;-55
2022/10/02 11:33:27;;;;;;;2.17;0.55;;;19.70;1.00;;;;;;5014693;28;20407;-52
2022/10/02 11:36:24;;;;;;;6.10;1.00;;;19.70;1.00;;;;;;5009155;28;20058;-53
2022/10/02 11:38:51;;;;;;;7.57;1.00;;;19.70;1.00;;;;;;5012506;28;20053;-50
2022/10/02 11:41:24;;;;;;;8.23;1.83;;;19.70;1.00;;;;;;5014185;28;20443;-50
2022/10/02 11:44:15;;;;;;;3.60;1.02;;;19.70;1.00;;;;;;5014449;28;20049;-52
2022/10/02 11:46:51;;;;;;;6.40;1.40;;;19.80;1.00;;;;;;5014549;28;20046;-48
2022/10/02 11:49:36;;;;;;;3.47;1.20;;;19.70;1.00;;;;;;5014596;28;20415;-50
2022/10/02 11:52:04;;;;;;;7.32;1.45;;;19.70;1.00;;;;;;5014169;28;20077;-52
2022/10/02 11:54:45;;;;;;;6.88;1.23;;;19.70;1.00;;;;;;5014380;28;20041;-56
2022/10/02 11:57:55;;;;;;;1.80;0.73;;;19.70;1.00;;;;;;5014514;28;20121;-49
2022/10/02 12:00:54;;;;;;;4.70;1.13;;;19.70;1.00;;;;;;5014345;28;20488;-50
2022/10/02 12:03:30;;;;;;;4.32;1.20;;;19.60;1.00;;;;;;5014145;28;20057;-52
2022/10/02 12:06:14;;;;;;;5.53;1.20;;;19.60;1.00;;;;;;5014135;28;20112;-56
2022/10/02 12:09:31;;;;;;;5.45;0.85;;;19.60;1.00;;;;;;5014449;28;20077;-50
2022/10/02 12:12:17;;;;;;;6.72;1.45;;;19.60;1.00;;;;;;5013283;28;20069;-53
2022/10/02 12:15:15;;;;;;;4.90;0.95;;;19.70;1.00;;;;;;5013827;28;20041;-53
2022/10/02 12:18:05;;;;;;;5.32;0.50;;;19.60;1.00;;;;;;5014198;28;20034;-53
2022/10/02 12:26:57;;;;;;;2.90;0.80;;;19.60;1.00;;;;;;5014800;28;20042;-51
2022/10/02 12:30:01;;;;;;;5.40;1.77;;;19.60;1.00;;;;;;5013824;28;20491;-51
2022/10/02 12:32:46;;;;;;;6.10;1.60;;;19.60;1.00;;;;;;5013669;28;20052;-51
2022/10/02 12:35:32;;;;;;;4.70;1.08;;;19.60;1.00;;;;;;5013771;28;20052;-53
2022/10/02 12:38:19;;;;;;;5.28;1.00;;;19.60;1.00;;;;;;5014163;28;20134;-53
2022/10/02 12:41:14;;;;;;;5.28;0.70;;;19.60;1.00;;;;;;5013071;28;20077;-54
2022/10/02 12:43:55;;;;;;;6.47;1.10;;;19.60;1.00;;;;;;5013437;28;20049;-52
2022/10/02 12:46:37;;;;;;;2.85;0.98;;;19.60;1.00;;;;;;5013789;28;20036;-49
2022/10/02 12:49:29;;;;;;;7.07;1.67;;;19.60;1.00;;;;;;5014127;28;20046;-49
2022/10/02 12:52:14;;;;;;;6.10;0.80;;;19.60;1.00;;;;;;5013584;28;20041;-51
2022/10/02 12:54:56;;;;;;;7.03;1.27;;;19.60;1.00;;;;;;5013607;28;20052;-53
2022/10/02 12:57:57;;;;;;;3.75;0.60;;;19.60;1.00;;;;;;5014194;28;20383;-51
2022/10/02 13:01:02;;;;;;;8.93;2.05;;;19.60;1.00;;;;;;5013579;28;20052;-50
2022/10/02 13:04:00;;;;;;;10.93;2.10;;;19.60;1.00;;;;;;5012827;28;20050;-51
2022/10/02 13:06:51;;;;;;;6.35;1.33;;;19.60;1.00;;;;;;5013379;28;20049;-50
2022/10/02 13:09:51;;;;;;;4.88;0.90;;;19.70;1.00;;;;;;5013524;28;20050;-53
2022/10/02 13:12:27;;;;;;;4.18;1.33;;;19.70;1.00;;;;;;5013178;28;20050;-54
2022/10/02 13:15:12;;;;;;;4.47;1.02;;;19.70;1.00;;;;;;5013381;28;20042;-52
2022/10/02 13:17:57;;;;;;;3.58;0.85;;;19.70;1.00;;;;;;5013761;28;20046;-51
2022/10/02 13:20:37;;;;;;;9.80;1.10;;;19.70;1.00;;;;;;5013532;28;20038;-52
2022/10/02 13:23:31;;;;;;;7.78;1.73;;;19.70;1.00;;;;;;5013238;28;20124;-54
2022/10/02 13:26:12;;;;;;;;;;;19.70;1.00;;;;;;5013855;28;20038;-53
2022/10/02 13:29:07;;;;;;;3.83;1.27;;;19.70;1.00;;;;;;5013583;28;19974;-56
2022/10/02 13:31:52;;;;;;;7.70;0.88;;;19.70;1.00;;;;;;5013028;28;20444;-49
2022/10/02 13:34:40;;;;;;;4.18;1.23;;;19.70;1.00;;;;;;5012976;28;20133;-51
2022/10/02 13:37:26;;;;;;;7.55;1.35;;;19.70;1.00;;;;;;5013122;28;20046;-54
2022/10/02 13:40:14;;;;;;;7.53;1.45;;;19.80;1.00;;;;;;5013303;28;20034;-52
2022/10/02 13:43:19;;;;;;;7.35;0.82;;;19.80;1.00;;;;;;5013345;28;20046;-55
2022/10/02 13:46:06;;;;;;;3.15;1.35;;;19.80;1.00;;;;;;5012877;28;20050;-48
2022/10/02 13:48:39;;;;;;;7.35;1.25;;;19.80;1.00;;;;;;5012877;28;20050;-54
2022/10/02 13:51:15;;;;;;;2.58;0.90;;;19.80;1.00;;;;;;5013463;28;20046;-50
2022/10/02 13:54:15;;;;;;;3.28;1.20;;;19.80;1.00;;;;;;5012847;28;20037;-52
2022/10/02 13:57:07;;;;;;;3.00;0.98;;;19.80;1.00;;;;;;5013384;28;20043;-53
2022/10/02 13:59:53;;;;;;;3.85;0.95;;;19.80;1.00;;;;;;5012995;28;20068;-52
2022/10/02 14:02:53;;;;;;;4.60;1.90;;;19.90;1.00;;;;;;5012670;28;20104;-51
2022/10/02 14:05:40;;;;;;;3.42;1.27;;;19.90;1.00;;;;;;5013100;28;20042;-48
2022/10/02 14:08:41;;;;;;;3.97;1.15;;;19.90;1.00;;;;;;5015401;28;20567;-49
2022/10/02 14:11:45;;;;;;;5.25;1.25;;;19.90;1.00;;;;;;5012511;28;20057;-52
2022/10/02 14:14:30;;;;;;;6.82;2.08;;;19.90;1.00;;;;;;5018100;28;20030;-53
2022/10/02 14:17:05;;;;;;;4.97;0.85;;;19.90;1.00;;;;;;5036166;28;20041;-54
2022/10/02 14:19:42;;;;;;;10.50;1.02;;;19.90;1.00;;;;;;5036062;28;20050;-48
2022/10/02 14:22:11;;;;;;;11.10;1.67;;;19.80;1.00;;;;;;5035370;28;20132;-53
2022/10/02 14:24:59;;;;;;;6.30;0.98;;;19.80;1.00;;;;;;5035935;28;20127;-47
2022/10/02 14:28:10;;;;;;;7.40;1.13;;;19.80;1.00;;;;;;5035699;28;20083;-49
2022/10/02 14:30:59;;;;;;;6.07;1.73;;;19.90;1.00;;;;;;5035839;28;20387;-50
2022/10/02 14:33:56;;;;;;;5.07;1.27;;;19.90;1.00;;;;;;5035564;28;20045;-50
2022/10/02 14:36:32;;;;;;;8.18;1.23;;;20.00;1.00;;;;;;5035659;28;20041;-52
2022/10/02 14:39:18;;;;;;;5.70;1.58;;;20.00;1.00;;;;;;5036217;28;20230;-51